Time;durP1;ratioP1;P1;durP2;ratioP2;P2;SDS_P1;SDS_P2;PMS_P1;PMS_P2;Temp;Humidity;BMP_temperature;BMP_pressure;BME280_temperature;BME280_humidity;BME280_pressure;Samples;Min_cycle;Max_cycle;Signal;HPM_P1;HPM_P2
2022/09/20 00:01:06;;;;;;;4.70;1.67;;;9.60;99.90;;;;;;4840919;29;20076;-57
2022/09/20 00:03:34;;;;;;;4.95;1.45;;;9.60;99.90;;;;;;4871109;29;20053;-56
2022/09/20 00:06:01;;;;;;;5.82;1.42;;;9.60;99.90;;;;;;4870555;29;20108;-56
2022/09/20 00:08:27;;;;;;;8.00;2.38;;;9.50;99.90;;;;;;4870064;29;20099;-58
2022/09/20 00:11:05;;;;;;;10.10;1.70;;;9.50;99.90;;;;;;4869252;29;20649;-58
2022/09/20 00:13:32;;;;;;;4.50;1.38;;;9.50;99.90;;;;;;4870798;29;20300;-57
2022/09/20 00:15:59;;;;;;;2.35;1.15;;;9.40;99.90;;;;;;4869280;29;20063;-57
2022/09/20 00:18:26;;;;;;;4.88;1.38;;;9.40;99.90;;;;;;4871073;29;20060;-56
2022/09/20 00:20:52;;;;;;;4.32;1.15;;;9.30;99.90;;;;;;4867279;29;20475;-57
2022/09/20 00:23:18;;;;;;;6.07;1.73;;;9.30;99.90;;;;;;4871449;29;20183;-56
2022/09/20 00:25:52;;;;;;;4.45;1.35;;;9.30;99.90;;;;;;4871616;29;20055;-57
2022/09/20 00:28:18;;;;;;;8.77;1.73;;;9.30;99.90;;;;;;4872370;29;20697;-56
2022/09/20 00:30:44;;;;;;;8.02;1.55;;;9.30;99.90;;;;;;4873393;29;20088;-59
2022/09/20 00:33:10;;;;;;;11.13;1.58;;;9.30;99.90;;;;;;4875285;29;20384;-57
2022/09/20 00:35:35;;;;;;;7.25;1.50;;;9.20;99.90;;;;;;4870440;29;20067;-55
2022/09/20 00:38:01;;;;;;;6.10;1.63;;;9.20;99.90;;;;;;4867929;29;20053;-58
2022/09/20 00:40:27;;;;;;;4.53;1.20;;;9.10;99.90;;;;;;4867635;29;20053;-57
2022/09/20 00:42:53;;;;;;;5.95;1.50;;;9.20;99.90;;;;;;4871490;29;20063;-56
2022/09/20 00:45:26;;;;;;;7.40;1.48;;;9.10;99.90;;;;;;4869903;29;20415;-57
2022/09/20 00:47:57;;;;;;;3.15;1.38;;;9.10;99.90;;;;;;4875697;29;20532;-58
2022/09/20 00:50:52;;;;;;;8.95;1.73;;;9.00;99.90;;;;;;4876747;29;20052;-58
2022/09/20 00:53:17;;;;;;;3.38;1.30;;;9.00;99.90;;;;;;4876637;29;20040;-57
2022/09/20 00:55:56;;;;;;;4.10;1.30;;;8.90;99.90;;;;;;4873899;29;20061;-56
2022/09/20 00:58:26;;;;;;;5.65;1.40;;;8.90;99.90;;;;;;4873097;29;20052;-55
2022/09/20 01:00:54;;;;;;;4.82;1.23;;;8.90;99.90;;;;;;4871690;29;20101;-56
2022/09/20 01:03:22;;;;;;;8.00;1.95;;;8.80;99.90;;;;;;4870017;29;20045;-56
2022/09/20 01:05:52;;;;;;;5.97;1.73;;;8.80;99.90;;;;;;4871872;29;20052;-57
2022/09/20 01:08:19;;;;;;;4.65;1.70;;;8.80;99.90;;;;;;4868735;29;20103;-55
2022/09/20 01:10:45;;;;;;;8.15;1.73;;;8.70;99.90;;;;;;4873171;29;20212;-57
2022/09/20 01:13:10;;;;;;;7.28;1.58;;;8.60;99.90;;;;;;4872077;29;20060;-57
2022/09/20 01:15:38;;;;;;;3.83;1.40;;;8.60;99.90;;;;;;4874259;29;20131;-56
2022/09/20 01:18:06;;;;;;;5.15;1.48;;;8.60;99.90;;;;;;4870650;29;20071;-57
2022/09/20 01:20:40;;;;;;;7.63;1.50;;;8.60;99.90;;;;;;4873914;29;20080;-57
2022/09/20 01:23:28;;;;;;;7.75;2.15;;;8.60;99.90;;;;;;4877443;29;20048;-58
2022/09/20 01:26:12;;;;;;;6.88;1.40;;;8.60;99.90;;;;;;4874547;29;20061;-57
2022/09/20 01:28:41;;;;;;;5.30;1.50;;;8.50;99.90;;;;;;4890210;29;20049;-57
2022/09/20 01:31:27;;;;;;;5.70;1.80;;;8.40;99.90;;;;;;4878096;29;20140;-57
2022/09/20 01:34:00;;;;;;;6.72;1.98;;;8.50;99.90;;;;;;4881085;29;20056;-57
2022/09/20 01:36:32;;;;;;;7.22;2.03;;;8.40;99.90;;;;;;4881904;29;20080;-58
2022/09/20 01:39:01;;;;;;;5.82;1.65;;;8.40;99.90;;;;;;4876544;29;20048;-57
2022/09/20 01:41:37;;;;;;;8.05;1.40;;;8.40;99.90;;;;;;4871671;29;20049;-55
2022/09/20 01:44:24;;;;;;;8.75;1.90;;;8.40;99.90;;;;;;4869675;29;20052;-57
2022/09/20 01:46:59;;;;;;;5.45;1.80;;;8.30;99.90;;;;;;4873162;29;20097;-58
2022/09/20 01:50:03;;;;;;;9.55;1.50;;;8.30;99.90;;;;;;4871700;29;20044;-57
2022/09/20 01:53:22;;;;;;;5.88;1.40;;;8.20;99.90;;;;;;4854434;29;20124;-56
2022/09/20 01:56:09;;;;;;;7.55;1.60;;;8.10;99.90;;;;;;4852053;29;20057;-57
2022/09/20 01:58:50;;;;;;;4.32;1.50;;;8.10;99.90;;;;;;4856816;29;20049;-58
2022/09/20 02:01:56;;;;;;;5.57;1.35;;;8.10;99.90;;;;;;4838626;29;20063;-57
2022/09/20 02:04:57;;;;;;;7.15;1.58;;;8.00;99.90;;;;;;4867831;29;20095;-57
2022/09/20 02:07:41;;;;;;;5.97;1.35;;;8.00;99.90;;;;;;4872065;29;20245;-58
2022/09/20 02:10:31;;;;;;;8.57;1.70;;;7.90;99.90;;;;;;4872468;29;20064;-56
2022/09/20 02:13:10;;;;;;;9.65;1.65;;;7.90;99.90;;;;;;4882726;29;20548;-57
2022/09/20 02:16:04;;;;;;;8.15;1.85;;;7.90;99.90;;;;;;4872179;29;20045;-57
2022/09/20 02:18:44;;;;;;;8.85;1.60;;;8.00;99.90;;;;;;4876466;29;20045;-58
2022/09/20 02:21:28;;;;;;;7.50;1.50;;;7.90;99.90;;;;;;4875465;29;20132;-56
2022/09/20 02:24:16;;;;;;;5.35;1.50;;;8.00;99.90;;;;;;4870743;29;20056;-58
2022/09/20 02:27:01;;;;;;;8.60;1.75;;;8.00;99.90;;;;;;4871304;29;20477;-57
2022/09/20 02:29:52;;;;;;;5.43;1.73;;;7.90;99.90;;;;;;4873277;29;20072;-56
2022/09/20 02:32:39;;;;;;;7.70;2.15;;;7.90;99.90;;;;;;4868370;29;21233;-58
2022/09/20 02:35:17;;;;;;;6.40;1.67;;;7.90;99.90;;;;;;4872355;29;20472;-56
2022/09/20 02:37:49;;;;;;;7.18;1.50;;;7.90;99.90;;;;;;4872238;29;20500;-57
2022/09/20 02:40:17;;;;;;;6.60;1.70;;;7.90;99.90;;;;;;4869651;29;21068;-57
2022/09/20 02:43:08;;;;;;;6.20;1.65;;;7.90;99.90;;;;;;4871632;29;20104;-57
2022/09/20 02:46:01;;;;;;;12.30;1.80;;;7.90;99.90;;;;;;4869585;29;20053;-58
2022/09/20 02:48:37;;;;;;;5.43;1.50;;;7.90;99.90;;;;;;4870740;29;20059;-57
2022/09/20 02:51:53;;;;;;;5.93;1.50;;;7.90;99.90;;;;;;4882900;29;20484;-57
2022/09/20 02:54:56;;;;;;;6.38;1.50;;;7.90;99.90;;;;;;4832846;29;20437;-55
2022/09/20 02:57:32;;;;;;;10.10;2.20;;;7.90;99.90;;;;;;4833957;29;20500;-58
2022/09/20 03:00:15;;;;;;;6.30;1.60;;;7.90;99.90;;;;;;4859941;29;20037;-54
2022/09/20 03:03:12;;;;;;;7.80;1.88;;;7.90;99.90;;;;;;4870437;29;20060;-58
2022/09/20 03:05:46;;;;;;;7.15;1.70;;;7.80;99.90;;;;;;4872497;29;20057;-58
2022/09/20 03:08:32;;;;;;;7.80;1.63;;;7.80;99.90;;;;;;4876104;29;20120;-57
2022/09/20 03:11:34;;;;;;;6.28;1.95;;;7.80;99.90;;;;;;4871431;29;20041;-57
2022/09/20 03:14:02;;;;;;;13.18;1.90;;;7.80;99.90;;;;;;4868806;29;20090;-58
2022/09/20 03:16:43;;;;;;;11.68;2.05;;;7.70;99.90;;;;;;4870043;29;20091;-57
2022/09/20 03:19:27;;;;;;;6.20;1.48;;;7.70;99.90;;;;;;4870167;29;20083;-56
2022/09/20 03:22:12;;;;;;;5.13;1.40;;;7.70;99.90;;;;;;4868776;29;20059;-58
2022/09/20 03:24:58;;;;;;;7.03;1.48;;;7.70;99.90;;;;;;4870265;29;20041;-56
2022/09/20 03:27:47;;;;;;;10.15;1.70;;;7.60;99.90;;;;;;4870518;29;20096;-58
2022/09/20 03:30:25;;;;;;;5.35;1.70;;;7.60;99.90;;;;;;4869796;29;20059;-55
2022/09/20 03:33:00;;;;;;;10.25;1.85;;;7.60;99.90;;;;;;4870809;29;22392;-58
2022/09/20 03:35:34;;;;;;;5.45;1.70;;;7.60;99.90;;;;;;4871234;29;20062;-58
2022/09/20 03:38:35;;;;;;;8.63;1.70;;;7.60;99.90;;;;;;4866760;29;20056;-55
2022/09/20 03:41:35;;;;;;;5.70;1.60;;;7.60;99.90;;;;;;4865376;29;20056;-55
2022/09/20 03:44:19;;;;;;;10.20;2.35;;;7.60;99.90;;;;;;4867903;29;20554;-56
2022/09/20 03:46:46;;;;;;;5.60;1.75;;;7.70;99.90;;;;;;4867517;29;20416;-58
2022/09/20 03:49:50;;;;;;;4.25;1.65;;;7.70;99.90;;;;;;4870826;29;20063;-57
2022/09/20 03:52:42;;;;;;;6.25;1.75;;;7.70;99.90;;;;;;4864687;29;20100;-56
2022/09/20 03:55:14;;;;;;;5.72;1.83;;;7.80;99.90;;;;;;4869871;29;20053;-56
2022/09/20 03:58:02;;;;;;;6.93;1.67;;;7.80;99.90;;;;;;4869319;29;20048;-56
2022/09/20 04:00:53;;;;;;;10.52;1.77;;;7.80;99.90;;;;;;4868022;29;20735;-58
2022/09/20 04:03:58;;;;;;;9.90;1.65;;;7.90;99.90;;;;;;4868691;29;20110;-57
2022/09/20 04:06:36;;;;;;;5.85;1.63;;;7.90;99.90;;;;;;4869669;29;22245;-57
2022/09/20 04:09:19;;;;;;;8.35;1.90;;;7.90;99.90;;;;;;4865836;29;20099;-55
2022/09/20 04:12:00;;;;;;;4.13;1.52;;;8.00;99.90;;;;;;4868149;29;20131;-57
2022/09/20 04:15:11;;;;;;;6.47;1.50;;;8.00;99.90;;;;;;4866376;29;20057;-57
2022/09/20 04:18:03;;;;;;;6.65;1.75;;;8.00;99.90;;;;;;4871331;29;20084;-58
2022/09/20 04:20:43;;;;;;;8.38;1.70;;;8.00;99.90;;;;;;4867411;29;20559;-57
2022/09/20 04:23:49;;;;;;;4.20;1.60;;;8.10;99.90;;;;;;4876939;29;20449;-55
2022/09/20 04:26:21;;;;;;;5.28;1.73;;;8.10;99.90;;;;;;4864552;29;20049;-56
2022/09/20 04:29:18;;;;;;;5.30;1.67;;;8.10;99.90;;;;;;4881280;29;20215;-57
2022/09/20 04:31:58;;;;;;;5.82;1.70;;;8.20;99.90;;;;;;4873602;29;20509;-57
2022/09/20 04:37:32;;;;;;;7.40;2.30;;;8.20;99.90;;;;;;4873207;29;20092;-57
2022/09/20 04:40:16;;;;;;;5.25;1.90;;;8.30;99.90;;;;;;4871351;29;20087;-56
2022/09/20 04:43:03;;;;;;;8.75;2.10;;;8.30;99.90;;;;;;4872477;29;20128;-57
2022/09/20 04:45:52;;;;;;;9.43;1.90;;;8.30;99.90;;;;;;4872468;29;20053;-57
2022/09/20 04:48:55;;;;;;;5.22;1.90;;;8.30;99.90;;;;;;4874794;29;20049;-58
2022/09/20 04:51:59;;;;;;;6.38;1.75;;;8.30;99.90;;;;;;4888198;29;20759;-56
2022/09/20 04:55:03;;;;;;;9.18;2.45;;;8.30;99.90;;;;;;4871831;29;20075;-57
2022/09/20 04:58:06;;;;;;;3.83;1.58;;;8.30;99.90;;;;;;4869719;29;20048;-57
2022/09/20 05:00:44;;;;;;;6.35;1.70;;;8.30;99.90;;;;;;4871992;29;20136;-57
2022/09/20 05:03:19;;;;;;;11.20;1.90;;;8.30;99.90;;;;;;4872277;29;20049;-57
2022/09/20 05:06:00;;;;;;;9.52;2.83;;;8.30;99.90;;;;;;4870683;29;20048;-56
2022/09/20 05:09:04;;;;;;;8.00;1.88;;;8.40;99.90;;;;;;4883363;29;20546;-56
2022/09/20 05:11:57;;;;;;;6.68;1.98;;;8.40;99.90;;;;;;4869952;29;20052;-55
2022/09/20 05:14:38;;;;;;;5.63;2.00;;;8.40;99.90;;;;;;4866336;29;20095;-56
2022/09/20 05:17:32;;;;;;;7.18;1.73;;;8.50;99.90;;;;;;4871566;29;21132;-57
2022/09/20 05:20:37;;;;;;;6.38;2.05;;;8.50;99.90;;;;;;4871733;29;20064;-55
2022/09/20 05:23:24;;;;;;;5.22;1.80;;;8.60;99.90;;;;;;4868902;29;20491;-58
2022/09/20 05:26:20;;;;;;;4.32;1.70;;;8.60;99.90;;;;;;4873009;29;20044;-56
2022/09/20 05:29:15;;;;;;;6.55;1.98;;;8.70;99.90;;;;;;4866298;29;20055;-57
2022/09/20 05:31:59;;;;;;;5.40;1.63;;;8.80;99.90;;;;;;4868153;29;20064;-56
2022/09/20 05:34:41;;;;;;;5.35;1.63;;;8.80;99.90;;;;;;4862600;29;20040;-56
2022/09/20 05:37:19;;;;;;;7.97;1.98;;;8.80;99.90;;;;;;4867480;29;20048;-58
2022/09/20 05:40:05;;;;;;;6.82;2.47;;;8.90;99.90;;;;;;4864244;29;20052;-55
2022/09/20 05:42:41;;;;;;;8.93;2.20;;;9.00;99.90;;;;;;4868015;29;20488;-55
2022/09/20 05:45:31;;;;;;;11.35;2.35;;;9.00;99.90;;;;;;4881078;29;20057;-57
2022/09/20 05:48:12;;;;;;;5.82;1.65;;;9.10;99.90;;;;;;4874723;29;20567;-56
2022/09/20 05:51:07;;;;;;;6.13;1.88;;;9.10;99.90;;;;;;4873966;29;20501;-58
2022/09/20 05:53:42;;;;;;;4.45;1.52;;;9.00;99.90;;;;;;4872289;29;20489;-58
2022/09/20 05:56:22;;;;;;;8.80;2.28;;;9.10;99.90;;;;;;4873837;29;20045;-58
2022/09/20 05:59:21;;;;;;;6.93;2.22;;;9.00;99.90;;;;;;4866065;29;20056;-54
2022/09/20 06:02:22;;;;;;;7.18;2.17;;;9.10;99.90;;;;;;4873076;29;20097;-51
2022/09/20 06:05:17;;;;;;;5.68;1.60;;;9.00;99.90;;;;;;4862719;29;20057;-54
2022/09/20 06:07:58;;;;;;;7.55;2.25;;;9.00;99.90;;;;;;4848770;29;20052;-50
2022/09/20 06:10:34;;;;;;;7.75;2.38;;;9.00;99.90;;;;;;4863259;29;20528;-53
2022/09/20 06:13:20;;;;;;;8.50;2.05;;;9.10;99.90;;;;;;4870190;29;20065;-50
2022/09/20 06:16:07;;;;;;;8.25;2.28;;;9.10;99.90;;;;;;4873408;29;20049;-52
2022/09/20 06:18:39;;;;;;;7.40;2.30;;;9.20;99.90;;;;;;4871683;29;20113;-53
2022/09/20 06:21:30;;;;;;;6.25;2.35;;;9.30;99.90;;;;;;4873245;29;20054;-53
2022/09/20 06:23:59;;;;;;;7.82;2.00;;;9.40;99.90;;;;;;4873877;29;21413;-54
2022/09/20 06:26:29;;;;;;;12.50;2.08;;;9.50;99.90;;;;;;4875513;29;20044;-53
2022/09/20 06:29:01;;;;;;;6.55;1.85;;;9.50;99.90;;;;;;4869606;29;22520;-53
2022/09/20 06:31:27;;;;;;;7.65;1.90;;;9.60;99.90;;;;;;4870860;29;20102;-53
2022/09/20 06:34:06;;;;;;;6.63;1.80;;;9.70;99.90;;;;;;4873307;29;20488;-54
2022/09/20 06:42:28;;;;;;;8.07;1.77;;;9.90;99.90;;;;;;4866732;29;20407;-54
2022/09/20 06:44:55;;;;;;;6.50;1.50;;;9.90;99.90;;;;;;4866305;29;20079;-53
2022/09/20 06:47:22;;;;;;;4.68;1.60;;;10.00;99.90;;;;;;4870219;29;20551;-52
2022/09/20 06:49:49;;;;;;;4.22;1.40;;;10.00;99.90;;;;;;4868011;29;20057;-52
2022/09/20 06:52:17;;;;;;;6.75;1.60;;;10.10;99.90;;;;;;4868823;29;21512;-51
2022/09/20 06:54:48;;;;;;;7.45;1.92;;;10.10;99.90;;;;;;4865124;29;20740;-53
2022/09/20 06:57:18;;;;;;;12.82;2.20;;;10.20;99.90;;;;;;4868691;29;20127;-51
2022/09/20 06:59:44;;;;;;;8.52;1.80;;;10.30;99.90;;;;;;4863644;29;20096;-53
2022/09/20 07:02:10;;;;;;;9.73;2.22;;;10.30;99.90;;;;;;4871655;29;20044;-49
2022/09/20 07:04:36;;;;;;;6.30;1.70;;;10.40;99.90;;;;;;4867874;29;20113;-53
2022/09/20 07:07:04;;;;;;;6.07;1.65;;;10.40;99.90;;;;;;4869457;29;20048;-52
2022/09/20 07:09:30;;;;;;;8.60;1.88;;;10.50;99.90;;;;;;4869651;29;20603;-54
2022/09/20 07:11:58;;;;;;;4.95;2.00;;;10.50;99.90;;;;;;4867839;29;20061;-50
2022/09/20 07:14:27;;;;;;;5.10;1.80;;;10.60;99.90;;;;;;4868779;29;20155;-51
2022/09/20 07:16:53;;;;;;;5.18;1.58;;;10.70;99.90;;;;;;4865380;29;20884;-52
2022/09/20 07:19:21;;;;;;;7.60;2.00;;;10.80;99.90;;;;;;4869498;29;20084;-53
2022/09/20 07:21:47;;;;;;;5.53;1.80;;;10.80;99.90;;;;;;4862774;29;20158;-50
2022/09/20 07:24:13;;;;;;;8.10;1.75;;;10.90;99.90;;;;;;4882052;29;20044;-52
2022/09/20 07:26:53;;;;;;;5.20;1.40;;;11.00;99.90;;;;;;4868778;29;20048;-51
2022/09/20 07:29:19;;;;;;;7.25;1.42;;;11.00;99.90;;;;;;4866710;29;20056;-53
2022/09/20 07:31:44;;;;;;;4.43;1.50;;;11.10;99.90;;;;;;4863329;29;20119;-53
2022/09/20 07:34:10;;;;;;;3.90;1.50;;;11.10;99.90;;;;;;4868361;29;20127;-53
2022/09/20 07:36:36;;;;;;;4.90;1.38;;;11.20;99.90;;;;;;4869073;29;20052;-52
2022/09/20 07:39:02;;;;;;;6.25;1.20;;;11.20;99.90;;;;;;4871294;29;20943;-51
2022/09/20 07:41:30;;;;;;;4.60;1.42;;;11.30;99.90;;;;;;4872327;29;20211;-52
2022/09/20 07:44:19;;;;;;;5.75;1.17;;;11.40;99.90;;;;;;4866818;29;20048;-51
2022/09/20 07:46:44;;;;;;;10.23;1.17;;;11.50;99.90;;;;;;4863210;29;20416;-54
2022/09/20 07:49:10;;;;;;;4.75;0.82;;;11.70;99.90;;;;;;4869424;29;20045;-53
2022/09/20 07:51:35;;;;;;;4.93;1.50;;;11.90;99.90;;;;;;4869288;29;20056;-52
2022/09/20 07:54:01;;;;;;;6.70;1.52;;;12.00;99.90;;;;;;4866742;29;20071;-53
2022/09/20 07:56:27;;;;;;;4.95;1.23;;;12.20;99.90;;;;;;4867875;29;20052;-51
2022/09/20 07:58:53;;;;;;;7.15;1.17;;;12.40;99.90;;;;;;4868271;29;20048;-51
2022/09/20 08:01:21;;;;;;;8.60;1.30;;;12.60;99.90;;;;;;4867727;29;20060;-53
2022/09/20 08:03:47;;;;;;;6.65;1.40;;;12.80;99.90;;;;;;4871613;29;20048;-55
2022/09/20 08:06:17;;;;;;;6.88;1.42;;;12.90;99.90;;;;;;4888985;29;20048;-53
2022/09/20 08:08:44;;;;;;;4.75;1.10;;;13.10;99.90;;;;;;4873862;29;20664;-51
2022/09/20 08:11:13;;;;;;;5.90;1.38;;;13.20;99.90;;;;;;4877142;29;20173;-52
2022/09/20 08:13:45;;;;;;;5.20;1.08;;;13.40;99.90;;;;;;4874753;29;20052;-53
2022/09/20 08:16:12;;;;;;;6.60;1.27;;;13.50;99.90;;;;;;4876887;29;20195;-54
2022/09/20 08:18:43;;;;;;;6.55;1.50;;;13.50;99.90;;;;;;4875793;29;20048;-53
2022/09/20 08:21:10;;;;;;;11.18;1.60;;;13.60;99.90;;;;;;4877153;29;20663;-52
2022/09/20 08:23:42;;;;;;;6.93;1.10;;;13.60;99.90;;;;;;4873095;29;20048;-53
2022/09/20 08:26:13;;;;;;;8.52;1.02;;;13.80;99.90;;;;;;4876327;29;20064;-53
2022/09/20 08:28:41;;;;;;;6.70;1.20;;;13.90;99.90;;;;;;4882900;29;20082;-54
2022/09/20 08:31:13;;;;;;;10.82;1.50;;;14.10;99.90;;;;;;4885112;29;20044;-54
2022/09/20 08:33:40;;;;;;;8.52;1.30;;;14.20;99.90;;;;;;4877679;29;20536;-54
2022/09/20 08:36:08;;;;;;;5.63;1.10;;;14.30;99.90;;;;;;4873019;29;20049;-52
2022/09/20 08:38:34;;;;;;;9.05;1.10;;;14.50;99.90;;;;;;4873458;29;20733;-52
2022/09/20 08:41:10;;;;;;;6.18;1.30;;;14.60;99.90;;;;;;4875537;29;20049;-53
2022/09/20 08:43:59;;;;;;;3.83;1.00;;;14.70;99.90;;;;;;4876465;29;20184;-52
2022/09/20 08:46:41;;;;;;;3.55;1.05;;;14.80;99.90;;;;;;4873176;29;20055;-52
2022/09/20 08:49:10;;;;;;;6.82;1.02;;;14.80;99.90;;;;;;4873254;29;20055;-52
2022/09/20 08:51:38;;;;;;;3.63;0.88;;;14.90;99.90;;;;;;4873830;29;20048;-54
2022/09/20 08:54:15;;;;;;;3.58;1.13;;;14.90;99.90;;;;;;4872252;29;20511;-55
2022/09/20 08:56:43;;;;;;;5.28;1.10;;;15.00;99.90;;;;;;4877634;29;20052;-53
2022/09/20 08:59:14;;;;;;;2.80;1.00;;;15.20;99.90;;;;;;4884811;29;20053;-51
2022/09/20 09:01:40;;;;;;;4.28;1.20;;;15.30;99.90;;;;;;4874354;29;20044;-53
2022/09/20 09:04:20;;;;;;;5.93;1.10;;;15.40;99.90;;;;;;4872820;29;20056;-53
2022/09/20 09:06:48;;;;;;;5.28;1.10;;;15.40;99.90;;;;;;4872589;29;20515;-53
2022/09/20 09:09:22;;;;;;;4.90;0.95;;;15.50;99.90;;;;;;4872407;29;20345;-52
2022/09/20 09:11:48;;;;;;;3.13;0.80;;;15.50;99.90;;;;;;4877628;29;20049;-54
2022/09/20 09:14:48;;;;;;;3.50;0.93;;;15.60;99.60;;;;;;4872855;29;20060;-53
2022/09/20 09:17:20;;;;;;;4.88;0.90;;;15.70;99.30;;;;;;4872301;29;20052;-53
2022/09/20 09:19:50;;;;;;;3.03;0.77;;;15.70;98.90;;;;;;4870033;29;20083;-54
2022/09/20 09:22:43;;;;;;;6.82;0.90;;;15.70;98.40;;;;;;4866860;29;21820;-51
2022/09/20 09:25:47;;;;;;;2.60;0.75;;;15.70;97.80;;;;;;4868207;29;20131;-51
2022/09/20 09:28:14;;;;;;;5.13;0.90;;;15.70;98.00;;;;;;4848233;29;20044;-48
2022/09/20 09:30:43;;;;;;;2.45;0.70;;;15.80;98.40;;;;;;4869590;29;20101;-49
2022/09/20 09:33:29;;;;;;;6.75;0.95;;;15.90;97.80;;;;;;4871697;29;20052;-53
2022/09/20 09:36:19;;;;;;;2.17;0.77;;;16.00;97.50;;;;;;4871699;29;20079;-50
2022/09/20 09:38:46;;;;;;;4.25;1.23;;;16.00;96.90;;;;;;4871137;29;20375;-49
2022/09/20 09:41:28;;;;;;;3.85;0.70;;;16.00;96.80;;;;;;4869138;29;20072;-51
2022/09/20 09:44:00;;;;;;;6.63;0.68;;;16.00;96.50;;;;;;4871960;29;20396;-49
2022/09/20 09:46:30;;;;;;;4.00;0.98;;;16.00;96.50;;;;;;4866359;29;20052;-51
2022/09/20 09:49:14;;;;;;;2.60;0.82;;;16.00;96.20;;;;;;4866319;29;20081;-50
2022/09/20 09:51:42;;;;;;;3.80;0.98;;;16.00;95.70;;;;;;4865623;29;20056;-49
2022/09/20 09:54:16;;;;;;;6.00;0.80;;;16.00;95.80;;;;;;4870521;29;20397;-49
2022/09/20 09:57:00;;;;;;;4.43;1.00;;;16.00;95.70;;;;;;4866545;29;20063;-48
2022/09/20 09:59:39;;;;;;;3.50;0.90;;;16.10;96.30;;;;;;4867841;29;20049;-49
2022/09/20 10:02:14;;;;;;;6.60;0.98;;;16.20;96.70;;;;;;4869878;29;20171;-51
2022/09/20 10:04:50;;;;;;;3.55;1.00;;;16.30;96.00;;;;;;4872704;29;20472;-51
2022/09/20 10:07:43;;;;;;;5.32;0.93;;;16.30;96.10;;;;;;4879878;29;20127;-50
2022/09/20 10:10:30;;;;;;;7.38;1.27;;;16.30;96.00;;;;;;4879477;29;20082;-49
2022/09/20 10:13:22;;;;;;;10.48;1.58;;;16.30;95.50;;;;;;4881751;29;20065;-52
2022/09/20 10:16:02;;;;;;;7.03;1.20;;;16.30;95.00;;;;;;4870215;29;20064;-49
2022/09/20 10:18:56;;;;;;;6.75;1.00;;;16.40;95.10;;;;;;4869934;29;21295;-49
2022/09/20 10:22:00;;;;;;;7.90;1.20;;;16.60;94.90;;;;;;4871143;29;20101;-47
2022/09/20 10:25:09;;;;;;;7.43;1.05;;;16.70;95.30;;;;;;4870216;29;20425;-50
2022/09/20 10:28:03;;;;;;;6.35;1.08;;;16.90;95.00;;;;;;4864523;29;20041;-57
2022/09/20 10:30:53;;;;;;;5.55;1.20;;;17.20;94.50;;;;;;4871540;29;20048;-57
2022/09/20 10:33:42;;;;;;;6.85;1.40;;;17.30;94.20;;;;;;4862002;29;20393;-58
2022/09/20 10:36:14;;;;;;;7.55;1.20;;;17.30;93.50;;;;;;4868397;29;20120;-56
2022/09/20 10:38:56;;;;;;;3.80;1.10;;;17.30;93.40;;;;;;4869207;29;20149;-57
2022/09/20 10:44:57;;;;;;;9.23;1.52;;;17.20;93.20;;;;;;4879292;29;20109;-57
2022/09/20 10:47:27;;;;;;;;;;;17.10;93.10;;;;;;4855117;29;20187;-57
2022/09/20 10:50:34;;;;;;;5.70;0.98;;;17.00;93.20;;;;;;4861496;29;19966;-56
2022/09/20 10:53:05;;;;;;;6.85;1.30;;;16.90;93.00;;;;;;4843374;29;20081;-58
2022/09/20 10:55:52;;;;;;;4.85;1.48;;;16.90;93.40;;;;;;4867055;29;20133;-57
2022/09/20 10:58:55;;;;;;;6.65;1.52;;;16.90;92.90;;;;;;4861383;29;20103;-57
2022/09/20 11:01:33;;;;;;;3.03;1.00;;;17.00;92.90;;;;;;4865636;29;20059;-58
2022/09/20 11:04:17;;;;;;;5.13;1.10;;;17.30;93.00;;;;;;4865623;29;20112;-56
2022/09/20 11:07:22;;;;;;;4.22;0.88;;;17.70;92.40;;;;;;4868959;29;20112;-58
2022/09/20 11:09:54;;;;;;;5.13;1.08;;;17.90;91.40;;;;;;4860169;29;20508;-56
2022/09/20 11:12:24;;;;;;;4.15;1.35;;;17.90;90.60;;;;;;4861566;29;20040;-57
2022/09/20 11:14:58;;;;;;;6.30;1.30;;;17.90;90.40;;;;;;4863702;29;20044;-56
2022/09/20 11:17:31;;;;;;;6.13;1.27;;;17.90;89.70;;;;;;4866708;29;20543;-57
2022/09/20 11:20:21;;;;;;;4.57;1.20;;;17.90;89.30;;;;;;4867260;29;20701;-57
2022/09/20 11:22:54;;;;;;;4.43;1.05;;;17.90;87.20;;;;;;4862105;29;20053;-56
2022/09/20 11:25:32;;;;;;;9.23;1.15;;;17.90;86.90;;;;;;4867464;29;20541;-57
2022/09/20 11:28:10;;;;;;;4.97;1.00;;;18.00;85.60;;;;;;4865261;29;20485;-57
2022/09/20 11:30:46;;;;;;;3.45;1.05;;;18.20;83.90;;;;;;4867209;29;20063;-57
2022/09/20 11:33:24;;;;;;;3.67;1.00;;;18.50;82.90;;;;;;4867559;29;20056;-57
2022/09/20 11:35:54;;;;;;;3.13;1.00;;;18.70;82.80;;;;;;4867555;29;20053;-57
2022/09/20 11:38:24;;;;;;;4.28;1.10;;;18.80;80.90;;;;;;4867281;29;20049;-57
2022/09/20 11:41:03;;;;;;;3.78;0.70;;;18.80;79.30;;;;;;4866337;29;20233;-57
2022/09/20 11:43:30;;;;;;;5.70;0.90;;;18.50;79.60;;;;;;4862864;29;20128;-57
2022/09/20 11:46:02;;;;;;;3.35;0.90;;;18.40;79.70;;;;;;4864815;29;20048;-58
2022/09/20 11:48:39;;;;;;;7.20;1.15;;;18.50;79.30;;;;;;4865532;29;20483;-57
2022/09/20 11:51:33;;;;;;;7.80;1.20;;;19.00;78.30;;;;;;4865494;29;20064;-55
2022/09/20 11:54:35;;;;;;;6.75;1.15;;;19.30;79.70;;;;;;4862141;29;20143;-58
2022/09/20 11:57:01;;;;;;;4.47;1.00;;;19.20;79.40;;;;;;4835157;29;20214;-57
2022/09/20 11:59:39;;;;;;;3.83;1.20;;;18.90;80.70;;;;;;4867965;29;20067;-58
2022/09/20 12:02:27;;;;;;;7.00;1.00;;;18.70;80.90;;;;;;4870444;29;20404;-58
2022/09/20 12:04:54;;;;;;;6.78;1.50;;;18.40;81.70;;;;;;4864373;29;20040;-56
2022/09/20 12:07:30;;;;;;;3.75;1.30;;;18.20;82.70;;;;;;4861151;29;20083;-57
2022/09/20 12:10:21;;;;;;;6.47;1.35;;;18.00;84.20;;;;;;4868675;29;20103;-58
2022/09/20 12:12:50;;;;;;;6.53;1.40;;;18.00;84.70;;;;;;4867854;29;20060;-56
2022/09/20 12:15:25;;;;;;;4.88;0.93;;;17.80;85.00;;;;;;4877877;29;20595;-58
2022/09/20 12:17:51;;;;;;;6.40;1.33;;;17.70;84.80;;;;;;4871313;29;20128;-57
2022/09/20 12:20:37;;;;;;;7.15;1.30;;;17.70;85.70;;;;;;4872396;29;20052;-57
2022/09/20 12:23:39;;;;;;;9.30;1.23;;;17.70;85.70;;;;;;4863659;29;20048;-57
2022/09/20 12:26:07;;;;;;;5.65;1.27;;;17.80;85.40;;;;;;4872119;29;20088;-58
2022/09/20 12:28:39;;;;;;;7.75;1.40;;;17.90;86.00;;;;;;4876804;29;20081;-57
2022/09/20 12:31:33;;;;;;;7.93;1.10;;;18.20;85.60;;;;;;4865065;29;20135;-57
2022/09/20 12:34:11;;;;;;;5.35;1.00;;;18.60;83.90;;;;;;4870000;29;20520;-57
2022/09/20 12:36:39;;;;;;;5.47;1.00;;;19.00;83.10;;;;;;4871406;29;20048;-58
2022/09/20 12:39:11;;;;;;;6.53;1.00;;;19.30;81.30;;;;;;4867625;29;20052;-58
2022/09/20 12:41:54;;;;;;;6.00;0.90;;;19.40;78.60;;;;;;4868118;29;20377;-58
2022/09/20 12:44:35;;;;;;;4.80;0.90;;;19.50;78.30;;;;;;4866809;29;20055;-58
2022/09/20 12:47:03;;;;;;;4.38;0.90;;;19.40;77.90;;;;;;4866486;29;20063;-57
2022/09/20 12:55:32;;;;;;;4.30;0.95;;;19.60;79.20;;;;;;4869341;29;20044;-58
2022/09/20 12:58:04;;;;;;;4.80;1.10;;;19.50;79.60;;;;;;4885617;29;20112;-57
2022/09/20 13:00:46;;;;;;;3.00;0.93;;;19.30;79.80;;;;;;4873321;29;20094;-57
2022/09/20 13:03:34;;;;;;;6.25;1.08;;;19.20;80.40;;;;;;4874892;29;20551;-57
2022/09/20 13:06:05;;;;;;;2.03;0.77;;;19.20;80.00;;;;;;4870031;29;20520;-57
2022/09/20 13:08:31;;;;;;;5.95;1.15;;;19.30;80.00;;;;;;4875457;29;20057;-58
2022/09/20 13:11:13;;;;;;;4.85;1.05;;;19.50;79.70;;;;;;4871165;29;20489;-57
2022/09/20 13:13:42;;;;;;;9.00;1.60;;;19.60;78.90;;;;;;4871735;29;20435;-57
2022/09/20 13:16:29;;;;;;;7.57;1.15;;;19.50;79.40;;;;;;4873321;29;20044;-57
2022/09/20 13:19:11;;;;;;;7.68;1.20;;;19.30;79.60;;;;;;4869180;29;20104;-56
2022/09/20 13:21:39;;;;;;;4.32;1.00;;;19.00;79.20;;;;;;4867945;29;20096;-58
2022/09/20 13:24:07;;;;;;;5.18;1.20;;;18.80;80.10;;;;;;4862620;29;20124;-57
2022/09/20 13:26:39;;;;;;;4.75;1.00;;;18.80;80.60;;;;;;4867693;29;20377;-56
2022/09/20 13:29:19;;;;;;;7.97;1.25;;;18.80;80.10;;;;;;4871687;29;20164;-57
2022/09/20 13:31:46;;;;;;;5.68;1.33;;;19.00;81.30;;;;;;4868580;29;20108;-57
2022/09/20 13:34:24;;;;;;;6.15;1.30;;;18.90;80.40;;;;;;4872179;29;20147;-58
2022/09/20 13:36:54;;;;;;;4.60;1.20;;;19.00;80.30;;;;;;4868384;29;20055;-57
2022/09/20 13:39:35;;;;;;;4.95;0.85;;;19.30;80.40;;;;;;4872002;29;20052;-58
2022/09/20 13:42:07;;;;;;;5.03;1.17;;;19.50;78.80;;;;;;4869427;29;20059;-58
2022/09/20 13:44:36;;;;;;;5.00;0.98;;;19.50;78.30;;;;;;4876406;29;20053;-57
2022/09/20 13:47:20;;;;;;;6.72;1.10;;;19.50;78.10;;;;;;4882039;29;20509;-58
2022/09/20 13:49:45;;;;;;;6.55;1.02;;;19.40;77.80;;;;;;4873958;29;20179;-58
2022/09/20 13:52:32;;;;;;;5.82;1.00;;;19.40;78.30;;;;;;4882273;29;20052;-58
2022/09/20 13:54:57;;;;;;;3.83;0.80;;;19.40;78.20;;;;;;4867647;29;24447;-58
2022/09/20 13:57:28;;;;;;;4.75;0.98;;;19.40;77.00;;;;;;4863832;29;20056;-58
2022/09/20 13:59:55;;;;;;;5.25;0.85;;;19.40;76.10;;;;;;4865747;29;20063;-57
2022/09/20 14:02:26;;;;;;;4.13;0.70;;;19.20;75.40;;;;;;4864388;29;20041;-56
2022/09/20 14:04:54;;;;;;;2.58;0.73;;;19.10;75.00;;;;;;4865835;29;20765;-57
2022/09/20 14:07:24;;;;;;;1.98;0.60;;;18.90;75.20;;;;;;4866737;29;20179;-56